sensor_id;sensor_type;location;lat;lon;timestamp;P1;durP1;ratioP1;P2;durP2;ratioP2
65328;SDS011;51941;52.210;5.158;2023-10-09T00:02:08;33.67;;;19.50;;
65328;SDS011;51941;52.210;5.158;2023-10-09T00:04:36;33.05;;;19.52;;
65328;SDS011;51941;52.210;5.158;2023-10-09T00:07:06;32.67;;;19.77;;
65328;SDS011;51941;52.210;5.158;2023-10-09T00:09:34;30.65;;;17.70;;
65328;SDS011;51941;52.210;5.158;2023-10-09T00:12:12;36.38;;;19.95;;
65328;SDS011;51941;52.210;5.158;2023-10-09T00:14:47;31.92;;;19.25;;
65328;SDS011;51941;52.210;5.158;2023-10-09T00:17:17;33.90;;;19.75;;
65328;SDS011;51941;52.210;5.158;2023-10-09T00:19:44;30.83;;;18.55;;
65328;SDS011;51941;52.210;5.158;2023-10-09T00:22:13;30.48;;;19.33;;
65328;SDS011;51941;52.210;5.158;2023-10-09T00:24:51;28.02;;;18.55;;
65328;SDS011;51941;52.210;5.158;2023-10-09T00:27:36;31.85;;;18.35;;
65328;SDS011;51941;52.210;5.158;2023-10-09T00:30:04;33.00;;;18.30;;
65328;SDS011;51941;52.210;5.158;2023-10-09T00:32:34;30.02;;;17.45;;
65328;SDS011;51941;52.210;5.158;2023-10-09T00:35:07;32.60;;;18.00;;
65328;SDS011;51941;52.210;5.158;2023-10-09T00:37:48;33.80;;;17.98;;
65328;SDS011;51941;52.210;5.158;2023-10-09T00:40:16;26.42;;;17.27;;
65328;SDS011;51941;52.210;5.158;2023-10-09T00:42:47;24.45;;;15.50;;
65328;SDS011;51941;52.210;5.158;2023-10-09T00:45:14;28.23;;;17.48;;
65328;SDS011;51941;52.210;5.158;2023-10-09T00:47:51;26.90;;;15.63;;
65328;SDS011;51941;52.210;5.158;2023-10-09T00:50:21;26.65;;;15.48;;
65328;SDS011;51941;52.210;5.158;2023-10-09T00:52:50;23.58;;;14.77;;
65328;SDS011;51941;52.210;5.158;2023-10-09T00:55:26;30.92;;;16.60;;
65328;SDS011;51941;52.210;5.158;2023-10-09T00:58:03;22.02;;;14.48;;
65328;SDS011;51941;52.210;5.158;2023-10-09T01:00:37;22.95;;;14.13;;
65328;SDS011;51941;52.210;5.158;2023-10-09T01:03:14;26.23;;;15.40;;
65328;SDS011;51941;52.210;5.158;2023-10-09T01:05:47;23.52;;;14.85;;
65328;SDS011;51941;52.210;5.158;2023-10-09T01:08:22;23.92;;;15.02;;
65328;SDS011;51941;52.210;5.158;2023-10-09T01:10:55;21.23;;;13.90;;
65328;SDS011;51941;52.210;5.158;2023-10-09T01:13:24;21.95;;;14.02;;
65328;SDS011;51941;52.210;5.158;2023-10-09T01:16:07;21.67;;;14.23;;
65328;SDS011;51941;52.210;5.158;2023-10-09T01:18:42;23.05;;;14.23;;
65328;SDS011;51941;52.210;5.158;2023-10-09T01:21:10;26.92;;;14.65;;
65328;SDS011;51941;52.210;5.158;2023-10-09T01:23:40;24.67;;;13.45;;
65328;SDS011;51941;52.210;5.158;2023-10-09T01:26:24;22.83;;;13.20;;
65328;SDS011;51941;52.210;5.158;2023-10-09T01:28:50;18.63;;;12.27;;
65328;SDS011;51941;52.210;5.158;2023-10-09T01:31:23;18.92;;;13.25;;
65328;SDS011;51941;52.210;5.158;2023-10-09T01:33:51;21.67;;;13.05;;
65328;SDS011;51941;52.210;5.158;2023-10-09T01:36:18;22.25;;;13.00;;
65328;SDS011;51941;52.210;5.158;2023-10-09T01:38:58;22.63;;;13.00;;
65328;SDS011;51941;52.210;5.158;2023-10-09T01:41:26;22.60;;;12.98;;
65328;SDS011;51941;52.210;5.158;2023-10-09T01:43:53;18.15;;;13.10;;
65328;SDS011;51941;52.210;5.158;2023-10-09T01:46:26;19.67;;;12.45;;
65328;SDS011;51941;52.210;5.158;2023-10-09T01:48:53;18.90;;;12.98;;
65328;SDS011;51941;52.210;5.158;2023-10-09T01:51:20;18.98;;;12.88;;
65328;SDS011;51941;52.210;5.158;2023-10-09T01:53:47;21.80;;;13.60;;
65328;SDS011;51941;52.210;5.158;2023-10-09T01:56:21;22.05;;;13.00;;
65328;SDS011;51941;52.210;5.158;2023-10-09T01:58:47;19.80;;;12.68;;
65328;SDS011;51941;52.210;5.158;2023-10-09T02:01:15;18.38;;;12.85;;
65328;SDS011;51941;52.210;5.158;2023-10-09T02:03:42;16.80;;;11.50;;
65328;SDS011;51941;52.210;5.158;2023-10-09T02:06:10;17.05;;;11.23;;
65328;SDS011;51941;52.210;5.158;2023-10-09T02:08:52;19.05;;;10.77;;
65328;SDS011;51941;52.210;5.158;2023-10-09T02:11:22;16.27;;;11.17;;
65328;SDS011;51941;52.210;5.158;2023-10-09T02:14:06;18.48;;;11.38;;
65328;SDS011;51941;52.210;5.158;2023-10-09T02:16:44;20.70;;;11.32;;
65328;SDS011;51941;52.210;5.158;2023-10-09T02:19:28;18.00;;;10.95;;
65328;SDS011;51941;52.210;5.158;2023-10-09T02:21:59;23.02;;;12.25;;
65328;SDS011;51941;52.210;5.158;2023-10-09T02:24:28;18.73;;;12.73;;
65328;SDS011;51941;52.210;5.158;2023-10-09T02:27:16;25.35;;;11.88;;
65328;SDS011;51941;52.210;5.158;2023-10-09T02:30:05;21.88;;;11.70;;
65328;SDS011;51941;52.210;5.158;2023-10-09T02:32:41;18.90;;;11.73;;
65328;SDS011;51941;52.210;5.158;2023-10-09T02:35:09;18.93;;;10.77;;
65328;SDS011;51941;52.210;5.158;2023-10-09T02:37:53;16.90;;;11.07;;
65328;SDS011;51941;52.210;5.158;2023-10-09T02:40:21;18.88;;;10.77;;
65328;SDS011;51941;52.210;5.158;2023-10-09T02:45:19;17.77;;;10.90;;
65328;SDS011;51941;52.210;5.158;2023-10-09T02:47:53;16.83;;;10.07;;
65328;SDS011;51941;52.210;5.158;2023-10-09T02:50:21;13.40;;;9.57;;
65328;SDS011;51941;52.210;5.158;2023-10-09T02:52:48;16.77;;;10.07;;
65328;SDS011;51941;52.210;5.158;2023-10-09T02:55:19;17.20;;;9.70;;
65328;SDS011;51941;52.210;5.158;2023-10-09T02:57:53;15.68;;;9.48;;
65328;SDS011;51941;52.210;5.158;2023-10-09T03:00:30;16.97;;;10.67;;
65328;SDS011;51941;52.210;5.158;2023-10-09T03:03:01;17.50;;;9.95;;
65328;SDS011;51941;52.210;5.158;2023-10-09T03:05:31;14.45;;;8.98;;
65328;SDS011;51941;52.210;5.158;2023-10-09T03:07:58;15.82;;;8.95;;
65328;SDS011;51941;52.210;5.158;2023-10-09T03:10:25;14.88;;;8.35;;
65328;SDS011;51941;52.210;5.158;2023-10-09T03:12:53;15.60;;;9.13;;
65328;SDS011;51941;52.210;5.158;2023-10-09T03:15:21;14.73;;;9.40;;
65328;SDS011;51941;52.210;5.158;2023-10-09T03:17:48;15.13;;;8.27;;
65328;SDS011;51941;52.210;5.158;2023-10-09T03:20:15;12.60;;;7.63;;
65328;SDS011;51941;52.210;5.158;2023-10-09T03:22:43;10.95;;;7.47;;
65328;SDS011;51941;52.210;5.158;2023-10-09T03:25:11;12.35;;;7.97;;
65328;SDS011;51941;52.210;5.158;2023-10-09T03:27:39;13.65;;;7.97;;
65328;SDS011;51941;52.210;5.158;2023-10-09T03:30:12;11.02;;;7.97;;
65328;SDS011;51941;52.210;5.158;2023-10-09T03:32:47;11.45;;;7.55;;
65328;SDS011;51941;52.210;5.158;2023-10-09T03:35:16;13.27;;;7.87;;
65328;SDS011;51941;52.210;5.158;2023-10-09T03:37:50;13.35;;;8.18;;
65328;SDS011;51941;52.210;5.158;2023-10-09T03:40:25;13.27;;;8.45;;
65328;SDS011;51941;52.210;5.158;2023-10-09T03:42:53;14.98;;;8.52;;
65328;SDS011;51941;52.210;5.158;2023-10-09T03:45:21;14.20;;;8.15;;
65328;SDS011;51941;52.210;5.158;2023-10-09T03:47:55;18.77;;;9.45;;
65328;SDS011;51941;52.210;5.158;2023-10-09T03:50:28;12.60;;;8.07;;
65328;SDS011;51941;52.210;5.158;2023-10-09T03:53:04;15.40;;;8.55;;
65328;SDS011;51941;52.210;5.158;2023-10-09T03:55:34;17.27;;;8.98;;
65328;SDS011;51941;52.210;5.158;2023-10-09T03:58:03;13.20;;;9.00;;
65328;SDS011;51941;52.210;5.158;2023-10-09T04:00:32;12.48;;;8.23;;
65328;SDS011;51941;52.210;5.158;2023-10-09T04:03:10;15.30;;;9.07;;
65328;SDS011;51941;52.210;5.158;2023-10-09T04:05:39;13.10;;;8.07;;
65328;SDS011;51941;52.210;5.158;2023-10-09T04:08:08;15.37;;;8.03;;
65328;SDS011;51941;52.210;5.158;2023-10-09T04:10:41;12.38;;;8.50;;
65328;SDS011;51941;52.210;5.158;2023-10-09T04:13:16;16.98;;;8.93;;
65328;SDS011;51941;52.210;5.158;2023-10-09T04:15:49;15.55;;;7.90;;
65328;SDS011;51941;52.210;5.158;2023-10-09T04:18:18;16.70;;;8.50;;
65328;SDS011;51941;52.210;5.158;2023-10-09T04:20:53;14.45;;;8.50;;
65328;SDS011;51941;52.210;5.158;2023-10-09T04:23:39;10.00;;;7.53;;
65328;SDS011;51941;52.210;5.158;2023-10-09T04:26:20;14.55;;;8.02;;
65328;SDS011;51941;52.210;5.158;2023-10-09T04:28:46;13.95;;;7.30;;
65328;SDS011;51941;52.210;5.158;2023-10-09T04:31:18;14.35;;;7.05;;
65328;SDS011;51941;52.210;5.158;2023-10-09T04:33:47;10.77;;;6.95;;
65328;SDS011;51941;52.210;5.158;2023-10-09T04:36:35;11.00;;;6.53;;
65328;SDS011;51941;52.210;5.158;2023-10-09T04:39:11;14.50;;;6.75;;
65328;SDS011;51941;52.210;5.158;2023-10-09T04:42:00;11.80;;;6.75;;
65328;SDS011;51941;52.210;5.158;2023-10-09T04:44:59;13.52;;;7.05;;
65328;SDS011;51941;52.210;5.158;2023-10-09T04:47:46;12.25;;;6.95;;
65328;SDS011;51941;52.210;5.158;2023-10-09T04:50:15;9.07;;;6.55;;
65328;SDS011;51941;52.210;5.158;2023-10-09T04:52:56;9.27;;;6.95;;
65328;SDS011;51941;52.210;5.158;2023-10-09T04:55:43;11.55;;;7.13;;
65328;SDS011;51941;52.210;5.158;2023-10-09T04:58:19;13.32;;;7.43;;
65328;SDS011;51941;52.210;5.158;2023-10-09T05:00:50;13.88;;;7.68;;
65328;SDS011;51941;52.210;5.158;2023-10-09T05:03:30;14.35;;;7.13;;
65328;SDS011;51941;52.210;5.158;2023-10-09T05:06:09;11.95;;;7.20;;
65328;SDS011;51941;52.210;5.158;2023-10-09T05:08:49;12.65;;;7.25;;
65328;SDS011;51941;52.210;5.158;2023-10-09T05:11:21;14.73;;;8.07;;
65328;SDS011;51941;52.210;5.158;2023-10-09T05:14:18;12.65;;;7.03;;
65328;SDS011;51941;52.210;5.158;2023-10-09T05:16:52;11.93;;;7.55;;
65328;SDS011;51941;52.210;5.158;2023-10-09T05:19:27;13.43;;;7.00;;
65328;SDS011;51941;52.210;5.158;2023-10-09T05:22:07;11.63;;;7.10;;
65328;SDS011;51941;52.210;5.158;2023-10-09T05:24:42;11.55;;;6.85;;
65328;SDS011;51941;52.210;5.158;2023-10-09T05:27:11;11.07;;;6.78;;
65328;SDS011;51941;52.210;5.158;2023-10-09T05:29:43;12.55;;;6.60;;
65328;SDS011;51941;52.210;5.158;2023-10-09T05:32:24;10.52;;;7.35;;
65328;SDS011;51941;52.210;5.158;2023-10-09T05:34:56;12.73;;;6.85;;
65328;SDS011;51941;52.210;5.158;2023-10-09T05:37:40;13.93;;;6.63;;
65328;SDS011;51941;52.210;5.158;2023-10-09T05:40:08;12.02;;;6.57;;
65328;SDS011;51941;52.210;5.158;2023-10-09T05:42:48;11.13;;;5.80;;
65328;SDS011;51941;52.210;5.158;2023-10-09T05:45:24;14.40;;;6.70;;
65328;SDS011;51941;52.210;5.158;2023-10-09T05:48:11;11.07;;;5.85;;
65328;SDS011;51941;52.210;5.158;2023-10-09T05:50:56;8.32;;;5.45;;
65328;SDS011;51941;52.210;5.158;2023-10-09T05:54:00;11.48;;;5.47;;
65328;SDS011;51941;52.210;5.158;2023-10-09T05:57:08;10.15;;;5.22;;
65328;SDS011;51941;52.210;5.158;2023-10-09T05:59:49;9.60;;;5.53;;
65328;SDS011;51941;52.210;5.158;2023-10-09T06:02:37;7.38;;;5.32;;
65328;SDS011;51941;52.210;5.158;2023-10-09T06:05:21;12.25;;;6.03;;
65328;SDS011;51941;52.210;5.158;2023-10-09T06:08:08;9.63;;;5.35;;
65328;SDS011;51941;52.210;5.158;2023-10-09T06:10:38;11.80;;;6.55;;
65328;SDS011;51941;52.210;5.158;2023-10-09T06:13:06;11.63;;;6.03;;
65328;SDS011;51941;52.210;5.158;2023-10-09T06:15:53;8.45;;;5.85;;
65328;SDS011;51941;52.210;5.158;2023-10-09T06:18:44;12.60;;;5.63;;
65328;SDS011;51941;52.210;5.158;2023-10-09T06:21:18;10.82;;;5.95;;
65328;SDS011;51941;52.210;5.158;2023-10-09T06:24:01;10.70;;;5.90;;
65328;SDS011;51941;52.210;5.158;2023-10-09T06:26:42;11.80;;;6.03;;
65328;SDS011;51941;52.210;5.158;2023-10-09T06:29:33;10.15;;;5.63;;
65328;SDS011;51941;52.210;5.158;2023-10-09T06:32:00;13.05;;;5.95;;
65328;SDS011;51941;52.210;5.158;2023-10-09T06:34:49;13.73;;;6.40;;
65328;SDS011;51941;52.210;5.158;2023-10-09T06:37:18;14.18;;;5.82;;
65328;SDS011;51941;52.210;5.158;2023-10-09T06:40:01;11.23;;;5.85;;
65328;SDS011;51941;52.210;5.158;2023-10-09T06:42:45;11.23;;;6.00;;
65328;SDS011;51941;52.210;5.158;2023-10-09T06:45:19;12.50;;;6.38;;
65328;SDS011;51941;52.210;5.158;2023-10-09T06:47:46;11.40;;;6.05;;
65328;SDS011;51941;52.210;5.158;2023-10-09T06:50:21;10.02;;;5.88;;
65328;SDS011;51941;52.210;5.158;2023-10-09T06:53:11;12.20;;;5.97;;
65328;SDS011;51941;52.210;5.158;2023-10-09T06:55:51;12.88;;;5.75;;
65328;SDS011;51941;52.210;5.158;2023-10-09T06:58:30;10.30;;;5.13;;
65328;SDS011;51941;52.210;5.158;2023-10-09T07:01:07;11.10;;;5.35;;
65328;SDS011;51941;52.210;5.158;2023-10-09T07:03:54;11.85;;;5.05;;
65328;SDS011;51941;52.210;5.158;2023-10-09T07:06:25;10.02;;;5.10;;
65328;SDS011;51941;52.210;5.158;2023-10-09T07:09:14;15.48;;;5.97;;
65328;SDS011;51941;52.210;5.158;2023-10-09T07:11:48;9.95;;;5.50;;
65328;SDS011;51941;52.210;5.158;2023-10-09T07:14:34;11.52;;;5.70;;
65328;SDS011;51941;52.210;5.158;2023-10-09T07:17:21;10.38;;;6.05;;
65328;SDS011;51941;52.210;5.158;2023-10-09T07:19:53;12.70;;;6.88;;
65328;SDS011;51941;52.210;5.158;2023-10-09T07:22:35;14.38;;;5.75;;
65328;SDS011;51941;52.210;5.158;2023-10-09T07:25:18;10.43;;;5.85;;
65328;SDS011;51941;52.210;5.158;2023-10-09T07:28:08;10.02;;;5.53;;
65328;SDS011;51941;52.210;5.158;2023-10-09T07:30:45;10.90;;;5.70;;
65328;SDS011;51941;52.210;5.158;2023-10-09T07:33:12;10.45;;;5.72;;
65328;SDS011;51941;52.210;5.158;2023-10-09T07:35:45;11.98;;;6.07;;
65328;SDS011;51941;52.210;5.158;2023-10-09T07:38:23;7.93;;;5.03;;
65328;SDS011;51941;52.210;5.158;2023-10-09T07:40:54;16.27;;;7.18;;
65328;SDS011;51941;52.210;5.158;2023-10-09T07:43:27;9.07;;;5.78;;
65328;SDS011;51941;52.210;5.158;2023-10-09T07:46:01;11.55;;;5.95;;
65328;SDS011;51941;52.210;5.158;2023-10-09T07:48:46;9.55;;;5.75;;
65328;SDS011;51941;52.210;5.158;2023-10-09T07:51:17;16.27;;;6.63;;
65328;SDS011;51941;52.210;5.158;2023-10-09T07:53:49;8.23;;;5.25;;
65328;SDS011;51941;52.210;5.158;2023-10-09T07:56:22;7.40;;;5.10;;
65328;SDS011;51941;52.210;5.158;2023-10-09T07:58:51;11.43;;;5.88;;
65328;SDS011;51941;52.210;5.158;2023-10-09T08:01:17;9.55;;;5.45;;
65328;SDS011;51941;52.210;5.158;2023-10-09T08:04:00;10.30;;;5.60;;
65328;SDS011;51941;52.210;5.158;2023-10-09T08:06:36;9.20;;;5.03;;
65328;SDS011;51941;52.210;5.158;2023-10-09T08:09:08;11.63;;;5.97;;
65328;SDS011;51941;52.210;5.158;2023-10-09T08:11:53;10.57;;;5.55;;
65328;SDS011;51941;52.210;5.158;2023-10-09T08:14:41;8.63;;;5.22;;
65328;SDS011;51941;52.210;5.158;2023-10-09T08:17:11;9.27;;;5.57;;
65328;SDS011;51941;52.210;5.158;2023-10-09T08:19:39;12.82;;;6.68;;
65328;SDS011;51941;52.210;5.158;2023-10-09T08:25:04;14.15;;;5.53;;
65328;SDS011;51941;52.210;5.158;2023-10-09T08:27:33;13.93;;;6.03;;
65328;SDS011;51941;52.210;5.158;2023-10-09T08:30:21;13.73;;;6.28;;
65328;SDS011;51941;52.210;5.158;2023-10-09T08:33:05;12.90;;;6.28;;
65328;SDS011;51941;52.210;5.158;2023-10-09T08:35:46;10.95;;;6.18;;
65328;SDS011;51941;52.210;5.158;2023-10-09T08:38:14;8.93;;;5.95;;
65328;SDS011;51941;52.210;5.158;2023-10-09T08:40:48;10.95;;;5.45;;
65328;SDS011;51941;52.210;5.158;2023-10-09T08:43:16;8.18;;;4.95;;
65328;SDS011;51941;52.210;5.158;2023-10-09T08:45:47;12.15;;;6.43;;
65328;SDS011;51941;52.210;5.158;2023-10-09T08:48:17;13.85;;;6.22;;
65328;SDS011;51941;52.210;5.158;2023-10-09T08:50:47;16.38;;;5.70;;
65328;SDS011;51941;52.210;5.158;2023-10-09T08:53:16;12.43;;;5.85;;
65328;SDS011;51941;52.210;5.158;2023-10-09T08:55:43;12.52;;;5.93;;
65328;SDS011;51941;52.210;5.158;2023-10-09T08:58:11;13.80;;;6.30;;
65328;SDS011;51941;52.210;5.158;2023-10-09T09:00:47;15.73;;;6.63;;
65328;SDS011;51941;52.210;5.158;2023-10-09T09:03:15;11.30;;;5.78;;
65328;SDS011;51941;52.210;5.158;2023-10-09T09:05:45;12.63;;;5.70;;
65328;SDS011;51941;52.210;5.158;2023-10-09T09:08:21;12.40;;;6.15;;
65328;SDS011;51941;52.210;5.158;2023-10-09T09:10:51;11.70;;;6.18;;
65328;SDS011;51941;52.210;5.158;2023-10-09T09:13:23;9.82;;;5.15;;
65328;SDS011;51941;52.210;5.158;2023-10-09T09:15:58;10.77;;;5.82;;
65328;SDS011;51941;52.210;5.158;2023-10-09T09:18:25;10.63;;;5.93;;
65328;SDS011;51941;52.210;5.158;2023-10-09T09:20:57;11.05;;;5.90;;
65328;SDS011;51941;52.210;5.158;2023-10-09T09:23:24;12.82;;;5.75;;
65328;SDS011;51941;52.210;5.158;2023-10-09T09:25:52;17.50;;;6.50;;
65328;SDS011;51941;52.210;5.158;2023-10-09T09:28:24;15.35;;;5.70;;
65328;SDS011;51941;52.210;5.158;2023-10-09T09:31:07;13.88;;;5.60;;
65328;SDS011;51941;52.210;5.158;2023-10-09T09:33:38;14.68;;;5.57;;
65328;SDS011;51941;52.210;5.158;2023-10-09T09:36:06;12.77;;;5.32;;
65328;SDS011;51941;52.210;5.158;2023-10-09T09:38:36;14.80;;;5.15;;
65328;SDS011;51941;52.210;5.158;2023-10-09T09:41:13;9.52;;;5.18;;
65328;SDS011;51941;52.210;5.158;2023-10-09T09:43:49;13.05;;;4.82;;
65328;SDS011;51941;52.210;5.158;2023-10-09T09:46:20;12.50;;;5.65;;
65328;SDS011;51941;52.210;5.158;2023-10-09T09:48:58;13.95;;;5.22;;
65328;SDS011;51941;52.210;5.158;2023-10-09T09:51:29;12.63;;;4.88;;
65328;SDS011;51941;52.210;5.158;2023-10-09T09:53:56;15.63;;;5.07;;
65328;SDS011;51941;52.210;5.158;2023-10-09T09:56:24;11.50;;;5.50;;
65328;SDS011;51941;52.210;5.158;2023-10-09T09:58:51;12.40;;;5.07;;
65328;SDS011;51941;52.210;5.158;2023-10-09T10:03:53;17.05;;;5.88;;
65328;SDS011;51941;52.210;5.158;2023-10-09T10:06:22;10.65;;;4.88;;
65328;SDS011;51941;52.210;5.158;2023-10-09T10:08:51;9.68;;;4.75;;
65328;SDS011;51941;52.210;5.158;2023-10-09T10:14:09;11.60;;;4.75;;
65328;SDS011;51941;52.210;5.158;2023-10-09T10:17:04;13.88;;;5.30;;
65328;SDS011;51941;52.210;5.158;2023-10-09T10:22:30;12.00;;;5.35;;
65328;SDS011;51941;52.210;5.158;2023-10-09T10:24:56;14.65;;;5.47;;
65328;SDS011;51941;52.210;5.158;2023-10-09T10:27:28;10.50;;;4.28;;
65328;SDS011;51941;52.210;5.158;2023-10-09T10:32:58;16.13;;;4.83;;
65328;SDS011;51941;52.210;5.158;2023-10-09T10:35:34;12.98;;;5.40;;
65328;SDS011;51941;52.210;5.158;2023-10-09T10:38:26;13.48;;;5.30;;
65328;SDS011;51941;52.210;5.158;2023-10-09T10:41:08;11.80;;;5.35;;
65328;SDS011;51941;52.210;5.158;2023-10-09T10:43:41;13.23;;;4.97;;
65328;SDS011;51941;52.210;5.158;2023-10-09T10:46:24;9.23;;;4.65;;
65328;SDS011;51941;52.210;5.158;2023-10-09T10:49:04;11.50;;;4.28;;
65328;SDS011;51941;52.210;5.158;2023-10-09T10:51:49;11.52;;;4.95;;
65328;SDS011;51941;52.210;5.158;2023-10-09T10:54:26;15.32;;;5.05;;
65328;SDS011;51941;52.210;5.158;2023-10-09T10:57:17;13.88;;;5.20;;
65328;SDS011;51941;52.210;5.158;2023-10-09T10:59:53;13.10;;;4.28;;
65328;SDS011;51941;52.210;5.158;2023-10-09T11:02:38;14.25;;;5.20;;
65328;SDS011;51941;52.210;5.158;2023-10-09T11:05:15;8.70;;;4.25;;
65328;SDS011;51941;52.210;5.158;2023-10-09T11:07:49;11.70;;;4.28;;
65328;SDS011;51941;52.210;5.158;2023-10-09T11:10:22;11.50;;;4.57;;
65328;SDS011;51941;52.210;5.158;2023-10-09T11:12:54;17.95;;;5.50;;
65328;SDS011;51941;52.210;5.158;2023-10-09T11:15:40;10.45;;;4.82;;
65328;SDS011;51941;52.210;5.158;2023-10-09T11:18:12;10.98;;;4.65;;
65328;SDS011;51941;52.210;5.158;2023-10-09T11:20:49;9.30;;;4.60;;
65328;SDS011;51941;52.210;5.158;2023-10-09T11:23:42;10.85;;;4.47;;
65328;SDS011;51941;52.210;5.158;2023-10-09T11:26:18;11.95;;;5.00;;
65328;SDS011;51941;52.210;5.158;2023-10-09T11:32:01;14.32;;;4.57;;
65328;SDS011;51941;52.210;5.158;2023-10-09T11:34:30;9.52;;;4.65;;
65328;SDS011;51941;52.210;5.158;2023-10-09T11:36:59;15.15;;;4.68;;
65328;SDS011;51941;52.210;5.158;2023-10-09T11:39:28;13.57;;;5.13;;
65328;SDS011;51941;52.210;5.158;2023-10-09T11:42:06;8.23;;;4.40;;
65328;SDS011;51941;52.210;5.158;2023-10-09T11:44:34;11.73;;;4.28;;
65328;SDS011;51941;52.210;5.158;2023-10-09T11:47:04;13.13;;;4.82;;
65328;SDS011;51941;52.210;5.158;2023-10-09T11:49:48;10.45;;;4.82;;
65328;SDS011;51941;52.210;5.158;2023-10-09T11:52:23;12.63;;;4.93;;
65328;SDS011;51941;52.210;5.158;2023-10-09T11:55:01;12.38;;;5.13;;
65328;SDS011;51941;52.210;5.158;2023-10-09T11:57:28;12.13;;;4.95;;
65328;SDS011;51941;52.210;5.158;2023-10-09T11:59:58;11.18;;;4.72;;
65328;SDS011;51941;52.210;5.158;2023-10-09T12:02:26;8.50;;;4.15;;
65328;SDS011;51941;52.210;5.158;2023-10-09T12:04:53;9.32;;;4.30;;
65328;SDS011;51941;52.210;5.158;2023-10-09T12:07:24;8.47;;;4.47;;
65328;SDS011;51941;52.210;5.158;2023-10-09T12:09:52;12.45;;;4.43;;
65328;SDS011;51941;52.210;5.158;2023-10-09T12:12:21;9.25;;;4.60;;
65328;SDS011;51941;52.210;5.158;2023-10-09T12:14:51;8.18;;;4.40;;
65328;SDS011;51941;52.210;5.158;2023-10-09T12:17:18;13.82;;;4.75;;
65328;SDS011;51941;52.210;5.158;2023-10-09T12:19:49;12.57;;;4.65;;
65328;SDS011;51941;52.210;5.158;2023-10-09T12:22:16;10.63;;;4.53;;
65328;SDS011;51941;52.210;5.158;2023-10-09T12:24:48;9.73;;;4.53;;
65328;SDS011;51941;52.210;5.158;2023-10-09T12:27:14;8.02;;;4.68;;
65328;SDS011;51941;52.210;5.158;2023-10-09T12:29:45;11.38;;;5.28;;
65328;SDS011;51941;52.210;5.158;2023-10-09T12:32:13;9.82;;;4.65;;
65328;SDS011;51941;52.210;5.158;2023-10-09T12:34:44;14.85;;;4.25;;
65328;SDS011;51941;52.210;5.158;2023-10-09T12:37:15;8.93;;;4.80;;
65328;SDS011;51941;52.210;5.158;2023-10-09T12:39:42;10.90;;;4.70;;
65328;SDS011;51941;52.210;5.158;2023-10-09T12:42:12;8.23;;;4.33;;
65328;SDS011;51941;52.210;5.158;2023-10-09T12:44:42;16.13;;;4.82;;
65328;SDS011;51941;52.210;5.158;2023-10-09T12:47:09;12.02;;;5.07;;
65328;SDS011;51941;52.210;5.158;2023-10-09T12:49:37;10.60;;;4.57;;
65328;SDS011;51941;52.210;5.158;2023-10-09T12:52:06;11.02;;;4.55;;
65328;SDS011;51941;52.210;5.158;2023-10-09T12:54:40;14.43;;;4.50;;
65328;SDS011;51941;52.210;5.158;2023-10-09T12:57:08;11.70;;;4.88;;
65328;SDS011;51941;52.210;5.158;2023-10-09T12:59:40;13.65;;;5.15;;
65328;SDS011;51941;52.210;5.158;2023-10-09T13:02:11;12.40;;;4.68;;
65328;SDS011;51941;52.210;5.158;2023-10-09T13:04:38;10.40;;;4.72;;
65328;SDS011;51941;52.210;5.158;2023-10-09T13:07:07;13.43;;;4.90;;
65328;SDS011;51941;52.210;5.158;2023-10-09T13:09:34;11.07;;;5.07;;
65328;SDS011;51941;52.210;5.158;2023-10-09T13:12:07;10.32;;;4.40;;
65328;SDS011;51941;52.210;5.158;2023-10-09T13:14:34;13.63;;;4.78;;
65328;SDS011;51941;52.210;5.158;2023-10-09T13:17:02;11.85;;;4.32;;
65328;SDS011;51941;52.210;5.158;2023-10-09T13:19:35;13.07;;;4.35;;
65328;SDS011;51941;52.210;5.158;2023-10-09T13:22:01;16.90;;;5.15;;
65328;SDS011;51941;52.210;5.158;2023-10-09T13:24:29;16.17;;;5.07;;
65328;SDS011;51941;52.210;5.158;2023-10-09T13:26:56;13.27;;;4.95;;
65328;SDS011;51941;52.210;5.158;2023-10-09T13:29:24;14.57;;;4.55;;
65328;SDS011;51941;52.210;5.158;2023-10-09T13:31:54;13.90;;;5.18;;
65328;SDS011;51941;52.210;5.158;2023-10-09T13:34:24;10.52;;;4.22;;
65328;SDS011;51941;52.210;5.158;2023-10-09T13:36:53;8.48;;;4.30;;
65328;SDS011;51941;52.210;5.158;2023-10-09T13:41:50;10.38;;;3.80;;
65328;SDS011;51941;52.210;5.158;2023-10-09T13:44:23;9.77;;;4.25;;
65328;SDS011;51941;52.210;5.158;2023-10-09T13:46:52;14.20;;;5.05;;
65328;SDS011;51941;52.210;5.158;2023-10-09T13:49:20;16.75;;;5.30;;
65328;SDS011;51941;52.210;5.158;2023-10-09T13:51:49;12.02;;;4.47;;
65328;SDS011;51941;52.210;5.158;2023-10-09T13:54:16;14.73;;;4.35;;
65328;SDS011;51941;52.210;5.158;2023-10-09T13:56:47;13.13;;;5.15;;
65328;SDS011;51941;52.210;5.158;2023-10-09T13:59:18;15.48;;;5.70;;
65328;SDS011;51941;52.210;5.158;2023-10-09T14:01:46;12.50;;;4.95;;
65328;SDS011;51941;52.210;5.158;2023-10-09T14:04:14;14.13;;;5.05;;
65328;SDS011;51941;52.210;5.158;2023-10-09T14:06:43;16.85;;;5.10;;
65328;SDS011;51941;52.210;5.158;2023-10-09T14:09:12;11.50;;;5.05;;
65328;SDS011;51941;52.210;5.158;2023-10-09T14:11:54;18.70;;;6.10;;
65328;SDS011;51941;52.210;5.158;2023-10-09T14:14:32;12.00;;;4.90;;
65328;SDS011;51941;52.210;5.158;2023-10-09T14:17:00;13.50;;;4.50;;
65328;SDS011;51941;52.210;5.158;2023-10-09T14:19:26;13.63;;;6.20;;
65328;SDS011;51941;52.210;5.158;2023-10-09T14:21:58;10.73;;;4.82;;
65328;SDS011;51941;52.210;5.158;2023-10-09T14:24:26;13.93;;;4.90;;
65328;SDS011;51941;52.210;5.158;2023-10-09T14:26:58;12.85;;;5.28;;
65328;SDS011;51941;52.210;5.158;2023-10-09T14:29:28;17.35;;;5.07;;
65328;SDS011;51941;52.210;5.158;2023-10-09T14:31:56;10.88;;;5.38;;
65328;SDS011;51941;52.210;5.158;2023-10-09T14:34:26;14.75;;;5.05;;
65328;SDS011;51941;52.210;5.158;2023-10-09T14:36:58;15.88;;;5.30;;
65328;SDS011;51941;52.210;5.158;2023-10-09T14:39:28;15.95;;;5.50;;
65328;SDS011;51941;52.210;5.158;2023-10-09T14:41:55;15.10;;;5.38;;
65328;SDS011;51941;52.210;5.158;2023-10-09T14:44:22;12.48;;;4.95;;
65328;SDS011;51941;52.210;5.158;2023-10-09T14:46:53;16.10;;;5.57;;
65328;SDS011;51941;52.210;5.158;2023-10-09T14:49:20;13.82;;;5.47;;
65328;SDS011;51941;52.210;5.158;2023-10-09T14:51:49;14.23;;;5.90;;
65328;SDS011;51941;52.210;5.158;2023-10-09T14:54:16;13.27;;;4.95;;
65328;SDS011;51941;52.210;5.158;2023-10-09T14:56:44;17.77;;;4.75;;
65328;SDS011;51941;52.210;5.158;2023-10-09T14:59:11;15.13;;;5.37;;
65328;SDS011;51941;52.210;5.158;2023-10-09T15:01:38;10.82;;;4.88;;
65328;SDS011;51941;52.210;5.158;2023-10-09T15:04:05;10.85;;;5.05;;
65328;SDS011;51941;52.210;5.158;2023-10-09T15:06:32;10.45;;;4.55;;
65328;SDS011;51941;52.210;5.158;2023-10-09T15:09:00;11.68;;;5.55;;
65328;SDS011;51941;52.210;5.158;2023-10-09T15:11:33;18.00;;;6.88;;
65328;SDS011;51941;52.210;5.158;2023-10-09T15:14:03;14.98;;;5.43;;
65328;SDS011;51941;52.210;5.158;2023-10-09T15:16:31;13.48;;;5.10;;
65328;SDS011;51941;52.210;5.158;2023-10-09T15:18:58;9.43;;;4.75;;
65328;SDS011;51941;52.210;5.158;2023-10-09T15:21:31;16.73;;;5.22;;
65328;SDS011;51941;52.210;5.158;2023-10-09T15:23:58;12.13;;;4.95;;
65328;SDS011;51941;52.210;5.158;2023-10-09T15:26:26;13.60;;;5.32;;
65328;SDS011;51941;52.210;5.158;2023-10-09T15:28:59;12.73;;;5.15;;
65328;SDS011;51941;52.210;5.158;2023-10-09T15:31:30;11.25;;;4.90;;
65328;SDS011;51941;52.210;5.158;2023-10-09T15:33:57;11.05;;;4.80;;